createdAt,value
2023-02-15T00:01:49.339Z,98421.50
2023-02-15T00:04:18.192Z,98416.09
2023-02-15T00:06:45.267Z,98423.31
2023-02-15T00:09:12.384Z,98414.41
2023-02-15T00:11:43.630Z,98415.66
2023-02-15T00:14:15.086Z,98416.66
2023-02-15T00:16:42.271Z,98407.78
2023-02-15T00:19:09.630Z,98405.47
2023-02-15T00:21:36.884Z,98407.44
2023-02-15T00:24:04.860Z,98397.47
2023-02-15T00:26:32.033Z,98400.47
2023-02-15T00:29:01.744Z,98398.94
2023-02-15T00:31:31.637Z,98395.28
2023-02-15T00:34:05.058Z,98392.34
2023-02-15T00:36:32.142Z,98387.88
2023-02-15T00:38:59.071Z,98389.34
2023-02-15T00:41:26.217Z,98392.28
2023-02-15T00:43:53.224Z,98391.41
2023-02-15T00:46:20.600Z,98387.19
2023-02-15T00:48:47.620Z,98391.00
2023-02-15T00:51:14.658Z,98397.56
2023-02-15T00:53:41.601Z,98391.97
2023-02-15T00:56:08.564Z,98406.06
2023-02-15T00:58:35.546Z,98386.59
2023-02-15T01:01:07.131Z,98389.81
2023-02-15T01:03:34.223Z,98376.19
2023-02-15T01:06:01.511Z,98382.41
2023-02-15T01:08:28.926Z,98387.56
2023-02-15T01:10:55.948Z,98384.16
2023-02-15T01:13:22.978Z,98386.38
2023-02-15T01:15:54.641Z,98378.44
2023-02-15T01:18:22.187Z,98382.88
2023-02-15T01:20:49.612Z,98374.50
2023-02-15T01:23:16.604Z,98375.41
2023-02-15T01:25:46.009Z,98375.28
2023-02-15T01:28:12.956Z,98367.63
2023-02-15T01:30:40.069Z,98360.38
2023-02-15T01:33:06.980Z,98353.56
2023-02-15T01:35:34.867Z,98353.50
2023-02-15T01:38:01.841Z,98348.16
2023-02-15T01:40:28.822Z,98347.25
2023-02-15T01:42:56.181Z,98343.94
2023-02-15T01:45:28.067Z,98347.50
2023-02-15T01:48:03.178Z,98344.41
2023-02-15T01:50:41.489Z,98339.53
2023-02-15T01:53:31.485Z,98344.66
2023-02-15T01:56:02.901Z,98331.72
2023-02-15T01:58:30.209Z,98327.34
2023-02-15T02:00:59.701Z,98329.94
2023-02-15T02:04:05.412Z,98331.00
2023-02-15T02:06:33.444Z,98329.06
2023-02-15T02:09:01.742Z,98327.88
2023-02-15T02:11:28.766Z,98320.16
2023-02-15T02:13:55.808Z,98318.81
2023-02-15T02:16:50.306Z,98308.47
2023-02-15T02:19:45.261Z,98305.75
2023-02-15T02:22:15.153Z,98309.50
2023-02-15T02:24:50.757Z,98309.69
2023-02-15T02:27:23.276Z,98314.22
2023-02-15T02:30:12.226Z,98306.63
2023-02-15T02:33:00.042Z,98321.50
2023-02-15T02:36:05.687Z,98317.56
2023-02-15T02:38:38.321Z,98327.59
2023-02-15T02:41:14.208Z,98319.28
2023-02-15T02:44:03.872Z,98321.28
2023-02-15T02:46:46.738Z,98313.63
2023-02-15T02:49:14.025Z,98315.44
2023-02-15T02:51:40.901Z,98312.47
2023-02-15T02:54:10.341Z,98303.84
2023-02-15T02:56:44.502Z,98303.81
2023-02-15T02:59:18.458Z,98295.97
2023-02-15T03:01:56.886Z,98295.13
2023-02-15T03:04:37.868Z,98294.31
2023-02-15T03:07:09.913Z,98295.59
2023-02-15T03:09:44.142Z,98292.59
2023-02-15T03:12:21.821Z,98292.22
2023-02-15T03:15:11.692Z,98294.41
2023-02-15T03:18:05.161Z,98301.00
2023-02-15T03:20:33.716Z,98302.44
2023-02-15T03:23:08.706Z,98301.75
2023-02-15T03:25:38.229Z,98311.25
2023-02-15T03:28:10.819Z,98309.16
2023-02-15T03:30:37.886Z,98308.09
2023-02-15T03:33:04.865Z,98313.28
2023-02-15T03:35:48.127Z,98310.31
2023-02-15T03:38:16.614Z,98305.75
2023-02-15T03:41:02.053Z,98300.94
2023-02-15T03:43:33.987Z,98293.53
2023-02-15T03:46:09.822Z,98293.00
2023-02-15T03:48:42.174Z,98302.75
2023-02-15T03:51:29.120Z,98303.66
2023-02-15T03:53:56.047Z,98301.94
2023-02-15T03:56:22.990Z,98306.72
2023-02-15T03:59:08.596Z,98309.28
2023-02-15T04:01:59.389Z,98304.31
2023-02-15T04:04:34.911Z,98307.91
2023-02-15T04:07:02.680Z,98310.72
2023-02-15T04:09:48.360Z,98300.41
2023-02-15T04:12:15.445Z,98301.47
2023-02-15T04:15:01.380Z,98305.56
2023-02-15T04:17:28.436Z,98299.13
2023-02-15T04:20:14.259Z,98296.13
2023-02-15T04:22:59.628Z,98300.59
2023-02-15T04:25:26.607Z,98300.94
2023-02-15T04:27:55.711Z,98299.31
2023-02-15T04:30:24.070Z,98303.25
2023-02-15T04:32:51.140Z,98302.47
2023-02-15T04:35:18.194Z,98296.63
2023-02-15T04:37:45.203Z,98293.41
2023-02-15T04:40:14.286Z,98293.31
2023-02-15T04:42:41.254Z,98292.81
2023-02-15T04:45:08.331Z,98291.31
2023-02-15T04:47:35.339Z,98294.78
2023-02-15T04:50:02.223Z,98291.06
2023-02-15T04:52:29.229Z,98295.69
2023-02-15T04:54:56.245Z,98296.09
2023-02-15T04:57:23.212Z,98290.88
2023-02-15T04:59:50.122Z,98296.50
2023-02-15T05:02:17.292Z,98295.63
2023-02-15T05:04:44.331Z,98294.63
2023-02-15T05:07:11.414Z,98297.91
2023-02-15T05:09:38.482Z,98304.78
2023-02-15T05:12:05.774Z,98308.91
2023-02-15T05:14:32.974Z,98305.13
2023-02-15T05:17:02.471Z,98299.56
2023-02-15T05:19:29.474Z,98300.94
2023-02-15T05:21:56.369Z,98302.69
2023-02-15T05:24:42.135Z,98296.78
2023-02-15T05:27:30.246Z,98299.59
2023-02-15T05:29:57.303Z,98297.53
2023-02-15T05:32:24.528Z,98294.59
2023-02-15T05:34:51.582Z,98296.28
2023-02-15T05:37:18.474Z,98293.34
2023-02-15T05:39:45.428Z,98287.09
2023-02-15T05:42:12.469Z,98289.22
2023-02-15T05:44:39.480Z,98292.81
2023-02-15T05:47:08.524Z,98283.59
2023-02-15T05:49:35.988Z,98290.03
2023-02-15T05:52:04.013Z,98290.78
2023-02-15T05:54:31.110Z,98286.63
2023-02-15T05:56:58.092Z,98290.59
2023-02-15T05:59:25.098Z,98294.53
2023-02-15T06:01:52.215Z,98295.44
2023-02-15T06:04:19.582Z,98303.75
2023-02-15T06:06:46.590Z,98301.09
2023-02-15T06:09:13.767Z,98300.84
2023-02-15T06:11:40.828Z,98302.16
2023-02-15T06:14:07.789Z,98308.63
2023-02-15T06:16:34.836Z,98303.19
2023-02-15T06:19:02.827Z,98301.38
2023-02-15T06:21:30.474Z,98306.47
2023-02-15T06:23:57.546Z,98315.56
2023-02-15T06:26:24.775Z,98314.16
2023-02-15T06:28:51.689Z,98324.16
2023-02-15T06:31:18.782Z,98333.09
2023-02-15T06:33:45.803Z,98324.75
2023-02-15T06:36:13.599Z,98326.19
2023-02-15T06:38:40.702Z,98332.38
2023-02-15T06:41:07.692Z,98335.66
2023-02-15T06:43:35.319Z,98339.53
2023-02-15T06:46:02.545Z,98338.41
2023-02-15T06:48:29.789Z,98335.41
2023-02-15T06:50:56.753Z,98336.63
2023-02-15T06:53:23.778Z,98330.09
2023-02-15T06:55:50.716Z,98345.00
2023-02-15T06:58:17.700Z,98329.84
2023-02-15T07:00:44.691Z,98336.47
2023-02-15T07:03:14.286Z,98326.19
2023-02-15T07:05:41.226Z,98337.94
2023-02-15T07:08:08.274Z,98339.38
2023-02-15T07:10:35.382Z,98329.63
2023-02-15T07:13:02.795Z,98325.25
2023-02-15T07:15:30.617Z,98330.41
2023-02-15T07:17:59.023Z,98323.44
2023-02-15T07:20:26.000Z,98324.13
2023-02-15T07:22:53.149Z,98324.78
2023-02-15T07:25:20.268Z,98317.44
2023-02-15T07:27:47.250Z,98321.16
2023-02-15T07:30:16.092Z,98301.81
2023-02-15T07:33:04.833Z,98305.94
2023-02-15T07:35:32.884Z,98312.38
2023-02-15T07:37:59.833Z,98305.63
2023-02-15T07:40:26.781Z,98305.63
2023-02-15T07:42:55.741Z,98304.41
2023-02-15T07:45:22.973Z,98313.47
2023-02-15T07:47:49.887Z,98312.50
2023-02-15T07:50:16.932Z,98309.63
2023-02-15T07:52:43.875Z,98304.66
2023-02-15T07:55:13.792Z,98314.28
2023-02-15T07:57:47.613Z,98299.28
2023-02-15T08:00:15.360Z,98307.94
2023-02-15T08:02:42.763Z,98304.72
2023-02-15T08:05:09.788Z,98303.31
2023-02-15T08:07:36.752Z,98316.88
2023-02-15T08:10:03.833Z,98315.03
2023-02-15T08:12:30.803Z,98319.44
2023-02-15T08:14:57.769Z,98314.56
2023-02-15T08:17:24.697Z,98324.97
2023-02-15T08:19:51.863Z,98319.06
2023-02-15T08:22:19.028Z,98331.34
2023-02-15T08:24:45.999Z,98319.88
2023-02-15T08:27:13.033Z,98316.97
2023-02-15T08:29:40.516Z,98314.03
2023-02-15T08:32:10.108Z,98321.75
2023-02-15T08:34:39.104Z,98317.78
2023-02-15T08:37:07.118Z,98319.25
2023-02-15T08:39:34.276Z,98325.38
2023-02-15T08:42:01.210Z,98318.59
2023-02-15T08:44:28.190Z,98310.59
2023-02-15T08:46:55.828Z,98308.88
2023-02-15T08:49:22.980Z,98308.06
2023-02-15T08:51:50.126Z,98308.38
2023-02-15T08:54:18.972Z,98310.09
2023-02-15T08:56:46.084Z,98307.91
2023-02-15T08:59:17.862Z,98314.41
2023-02-15T09:01:45.083Z,98301.50
2023-02-15T09:04:13.364Z,98307.91
2023-02-15T09:06:40.970Z,98309.72
2023-02-15T09:09:08.588Z,98310.19
2023-02-15T09:11:37.393Z,98307.53
2023-02-15T09:14:06.744Z,98311.81
2023-02-15T09:16:34.910Z,98309.91
2023-02-15T09:19:07.765Z,98310.03
2023-02-15T09:21:36.953Z,98316.44
2023-02-15T09:24:06.708Z,98312.84
2023-02-15T09:26:35.087Z,98305.25
2023-02-15T09:29:02.583Z,98306.53
2023-02-15T09:31:50.021Z,98297.66
2023-02-15T09:34:18.743Z,98298.56
2023-02-15T09:36:45.716Z,98302.28
2023-02-15T09:39:17.186Z,98302.13
2023-02-15T09:41:49.836Z,98296.03
2023-02-15T09:44:16.782Z,98304.53
2023-02-15T09:47:05.594Z,98310.44
2023-02-15T09:49:48.880Z,98306.56
2023-02-15T09:52:24.606Z,98302.03
2023-02-15T09:55:04.466Z,98303.31
2023-02-15T09:57:55.431Z,98297.63
2023-02-15T10:00:31.990Z,98308.28
2023-02-15T10:03:34.999Z,98304.13
2023-02-15T10:06:26.998Z,98311.56
2023-02-15T10:09:08.994Z,98304.38
2023-02-15T10:11:46.984Z,98311.00
2023-02-15T10:14:19.785Z,98309.72
2023-02-15T10:16:57.701Z,98306.78
2023-02-15T10:19:50.754Z,98300.88
2023-02-15T10:22:44.872Z,98300.88
2023-02-15T10:25:39.337Z,98302.16
2023-02-15T10:28:07.820Z,98304.13
2023-02-15T10:30:41.345Z,98305.28
2023-02-15T10:33:20.238Z,98299.16
2023-02-15T10:36:04.897Z,98300.41
2023-02-15T10:38:47.517Z,98305.72
2023-02-15T10:41:47.304Z,98301.34
2023-02-15T10:44:28.952Z,98308.88
2023-02-15T10:47:12.968Z,98302.94
2023-02-15T10:50:11.047Z,98305.19
2023-02-15T10:53:10.621Z,98287.75
2023-02-15T10:55:43.377Z,98277.97
2023-02-15T10:58:11.531Z,98277.53
2023-02-15T11:01:09.088Z,98279.22
2023-02-15T11:04:08.455Z,98271.22
2023-02-15T11:06:36.562Z,98270.53
2023-02-15T11:09:06.010Z,98266.06
2023-02-15T11:11:36.164Z,98266.19
2023-02-15T11:14:05.547Z,98253.69
2023-02-15T11:16:37.294Z,98246.72
2023-02-15T11:19:18.015Z,98245.47
2023-02-15T11:21:47.081Z,98239.75
2023-02-15T11:24:15.779Z,98237.72
2023-02-15T11:26:48.404Z,98230.03
2023-02-15T11:29:34.924Z,98226.25
2023-02-15T11:32:12.740Z,98217.75
2023-02-15T11:35:07.702Z,98209.84
2023-02-15T11:37:51.463Z,98212.22
2023-02-15T11:40:25.865Z,98208.75
2023-02-15T11:42:55.016Z,98210.16
2023-02-15T11:45:27.780Z,98206.09
2023-02-15T11:47:55.908Z,98200.91
2023-02-15T11:50:28.506Z,98200.25
2023-02-15T11:52:59.614Z,98202.97
2023-02-15T11:55:27.276Z,98193.78
2023-02-15T11:58:19.325Z,98203.84
2023-02-15T12:00:47.721Z,98191.69
2023-02-15T12:03:23.556Z,98190.84
2023-02-15T12:05:57.632Z,98191.56
2023-02-15T12:08:24.728Z,98193.38
2023-02-15T12:10:51.534Z,98183.56
2023-02-15T12:13:19.847Z,98178.22
2023-02-15T12:15:49.836Z,98166.53
2023-02-15T12:18:42.347Z,98163.31
2023-02-15T12:21:14.503Z,98171.78
2023-02-15T12:23:45.007Z,98161.25
2023-02-15T12:26:12.119Z,98160.22
2023-02-15T12:28:45.443Z,98158.09
2023-02-15T12:31:40.025Z,98159.97
2023-02-15T12:34:32.302Z,98164.16
2023-02-15T12:37:03.208Z,98159.00
2023-02-15T12:39:31.678Z,98156.25
2023-02-15T12:42:15.327Z,98167.31
2023-02-15T12:44:56.901Z,98163.09
2023-02-15T12:47:29.024Z,98165.13
2023-02-15T12:50:23.325Z,98162.56
2023-02-15T12:52:51.768Z,98157.84
2023-02-15T12:55:22.779Z,98158.47
2023-02-15T12:57:51.516Z,98151.78
2023-02-15T13:00:21.950Z,98152.47
2023-02-15T13:02:51.420Z,98142.97
2023-02-15T13:05:24.587Z,98141.34
2023-02-15T13:07:53.151Z,98134.16
2023-02-15T13:10:50.752Z,98129.16
2023-02-15T13:13:23.092Z,98131.66
2023-02-15T13:15:52.199Z,98126.38
2023-02-15T13:18:35.332Z,98121.53
2023-02-15T13:21:41.773Z,98116.63
2023-02-15T13:24:23.543Z,98124.16
2023-02-15T13:26:51.050Z,98123.00
2023-02-15T13:29:31.245Z,98124.22
2023-02-15T13:31:59.177Z,98119.06
2023-02-15T13:34:31.436Z,98122.69
2023-02-15T13:37:09.480Z,98112.75
2023-02-15T13:39:58.061Z,98117.09
2023-02-15T13:42:32.015Z,98115.50
2023-02-15T13:45:24.459Z,98105.13
2023-02-15T13:47:57.431Z,98104.94
2023-02-15T13:50:44.666Z,98093.53
2023-02-15T13:53:37.064Z,98091.47
2023-02-15T13:56:31.476Z,98092.72
2023-02-15T13:59:14.643Z,98099.09
2023-02-15T14:01:46.049Z,98099.19
2023-02-15T14:04:38.041Z,98093.59
2023-02-15T14:07:25.381Z,98094.72
2023-02-15T14:10:10.910Z,98095.53
2023-02-15T14:12:56.776Z,98103.44
2023-02-15T14:15:35.621Z,98103.03
2023-02-15T14:18:37.978Z,98107.91
2023-02-15T14:21:18.948Z,98095.34
2023-02-15T14:24:22.980Z,98093.91
2023-02-15T14:27:08.279Z,98088.91
2023-02-15T14:29:52.078Z,98081.59
2023-02-15T14:32:33.764Z,98079.22
2023-02-15T14:35:02.017Z,98087.53
2023-02-15T14:37:51.896Z,98087.63
2023-02-15T14:41:04.392Z,98087.31
2023-02-15T14:44:08.499Z,98095.47
2023-02-15T14:46:39.499Z,98089.41
2023-02-15T14:49:23.360Z,98086.00
2023-02-15T14:51:51.117Z,98085.09
2023-02-15T14:54:18.234Z,98094.06
2023-02-15T14:56:46.057Z,98081.56
2023-02-15T14:59:12.912Z,98092.09
2023-02-15T15:01:40.006Z,98078.91
2023-02-15T15:04:12.956Z,98085.00
2023-02-15T15:06:41.890Z,98086.63
2023-02-15T15:09:15.182Z,98091.50
2023-02-15T15:11:44.712Z,98089.47
2023-02-15T15:14:32.428Z,98086.81
2023-02-15T15:17:02.286Z,98085.50
2023-02-15T15:19:55.488Z,98094.31
2023-02-15T15:22:23.522Z,98088.66
2023-02-15T15:24:56.933Z,98087.34
2023-02-15T15:27:44.190Z,98084.31
2023-02-15T15:30:14.352Z,98087.59
2023-02-15T15:32:59.172Z,98087.63
2023-02-15T15:36:03.808Z,98085.78
2023-02-15T15:39:07.888Z,98087.03
2023-02-15T15:41:47.628Z,98091.41
2023-02-15T15:44:39.249Z,98092.28
2023-02-15T15:47:18.900Z,98096.22
2023-02-15T15:49:45.886Z,98090.66
2023-02-15T15:52:20.332Z,98092.59
2023-02-15T15:54:53.897Z,98099.00
2023-02-15T15:57:32.815Z,98089.31
2023-02-15T16:00:00.734Z,98094.59
2023-02-15T16:02:27.970Z,98099.47
2023-02-15T16:04:55.138Z,98094.41
2023-02-15T16:07:26.138Z,98103.63
2023-02-15T16:10:17.700Z,98096.78
2023-02-15T16:12:44.807Z,98104.16
2023-02-15T16:15:16.253Z,98101.69
2023-02-15T16:17:48.605Z,98096.25
2023-02-15T16:20:30.676Z,98100.22
2023-02-15T16:23:24.179Z,98096.38
2023-02-15T16:26:06.135Z,98097.97
2023-02-15T16:28:33.183Z,98100.91
2023-02-15T16:31:11.857Z,98098.69
2023-02-15T16:33:40.579Z,98090.25
2023-02-15T16:36:11.697Z,98094.88
2023-02-15T16:38:44.759Z,98089.25
2023-02-15T16:41:13.392Z,98088.31
2023-02-15T16:43:40.638Z,98081.56
2023-02-15T16:46:11.663Z,98081.00
2023-02-15T16:48:43.833Z,98081.84
2023-02-15T16:51:10.895Z,98080.69
2023-02-15T16:53:37.882Z,98089.66
2023-02-15T16:56:05.767Z,98097.72
2023-02-15T16:58:45.830Z,98108.44
2023-02-15T17:01:14.127Z,98107.59
2023-02-15T17:03:42.178Z,98113.47
2023-02-15T17:06:24.460Z,98106.50
2023-02-15T17:08:51.492Z,98117.69
2023-02-15T17:11:22.314Z,98120.50
2023-02-15T17:14:09.805Z,98118.44
2023-02-15T17:16:54.822Z,98117.22
2023-02-15T17:19:29.702Z,98119.19
2023-02-15T17:22:01.908Z,98115.53
2023-02-15T17:24:31.970Z,98118.44
2023-02-15T17:27:01.497Z,98126.78
2023-02-15T17:29:37.861Z,98115.84
2023-02-15T17:32:06.207Z,98115.56
2023-02-15T17:35:09.405Z,98118.06
2023-02-15T17:37:39.173Z,98119.81
2023-02-15T17:40:25.765Z,98119.44
2023-02-15T17:42:53.354Z,98126.03
2023-02-15T17:45:20.909Z,98131.31
2023-02-15T17:47:48.575Z,98127.03
2023-02-15T17:50:24.186Z,98132.69
2023-02-15T17:52:51.974Z,98137.44
2023-02-15T17:55:36.023Z,98136.94
2023-02-15T17:58:04.691Z,98131.75
2023-02-15T18:00:50.586Z,98120.28
2023-02-15T18:03:36.277Z,98121.91
2023-02-15T18:06:22.181Z,98121.28
2023-02-15T18:09:08.062Z,98137.31
2023-02-15T18:11:36.493Z,98138.56
2023-02-15T18:14:10.339Z,98140.25
2023-02-15T18:16:40.876Z,98142.44
2023-02-15T18:19:11.844Z,98139.03
2023-02-15T18:21:38.754Z,98144.69
2023-02-15T18:24:05.730Z,98144.03
2023-02-15T18:26:32.669Z,98138.09
2023-02-15T18:28:59.619Z,98139.44
2023-02-15T18:31:26.689Z,98142.19
2023-02-15T18:33:58.410Z,98149.50
2023-02-15T18:36:33.581Z,98147.75
2023-02-15T18:39:04.751Z,98155.47
2023-02-15T18:41:34.419Z,98152.84
2023-02-15T18:44:01.417Z,98151.19
2023-02-15T18:46:29.564Z,98152.25
2023-02-15T18:48:56.517Z,98158.09
2023-02-15T18:51:23.868Z,98165.72
2023-02-15T18:53:52.790Z,98162.72
2023-02-15T18:56:21.324Z,98165.69
2023-02-15T18:58:48.445Z,98163.34
2023-02-15T19:01:21.394Z,98172.47
2023-02-15T19:03:50.148Z,98161.41
2023-02-15T19:06:20.955Z,98168.81
2023-02-15T19:08:49.146Z,98166.69
2023-02-15T19:11:20.655Z,98162.66
2023-02-15T19:13:49.176Z,98163.00
2023-02-15T19:16:34.730Z,98164.28
2023-02-15T19:19:01.856Z,98169.59
2023-02-15T19:21:29.923Z,98158.06
2023-02-15T19:23:59.542Z,98175.94
2023-02-15T19:26:39.670Z,98165.50
2023-02-15T19:29:13.148Z,98166.31
2023-02-15T19:31:40.252Z,98162.94
2023-02-15T19:34:14.950Z,98163.44
2023-02-15T19:36:43.091Z,98159.63
2023-02-15T19:39:21.701Z,98162.94
2023-02-15T19:41:48.661Z,98151.75
2023-02-15T19:44:15.585Z,98155.56
2023-02-15T19:46:42.609Z,98153.16
2023-02-15T19:49:10.232Z,98154.72
2023-02-15T19:51:39.414Z,98149.09
2023-02-15T19:54:24.679Z,98153.28
2023-02-15T19:56:51.624Z,98149.88
2023-02-15T19:59:32.460Z,98148.88
2023-02-15T20:01:59.533Z,98141.16
2023-02-15T20:04:27.089Z,98137.50
2023-02-15T20:06:55.337Z,98140.81
2023-02-15T20:09:27.045Z,98137.97
2023-02-15T20:11:54.237Z,98134.00
2023-02-15T20:14:21.759Z,98140.09
2023-02-15T20:16:49.067Z,98137.03
2023-02-15T20:19:16.160Z,98142.88
2023-02-15T20:21:44.003Z,98131.13
2023-02-15T20:24:16.152Z,98133.13
2023-02-15T20:26:43.261Z,98144.50
2023-02-15T20:29:13.451Z,98143.16
2023-02-15T20:31:40.625Z,98136.41
2023-02-15T20:34:07.807Z,98137.44
2023-02-15T20:36:35.091Z,98138.34
2023-02-15T20:39:04.547Z,98128.91
2023-02-15T20:41:37.658Z,98136.16
2023-02-15T20:44:26.075Z,98130.00
2023-02-15T20:46:57.276Z,98139.09
2023-02-15T20:49:24.960Z,98144.56
2023-02-15T20:51:52.678Z,98134.53
2023-02-15T20:54:23.949Z,98140.38
2023-02-15T20:56:51.484Z,98130.16
2023-02-15T20:59:26.001Z,98132.75
2023-02-15T21:01:56.042Z,98130.53
2023-02-15T21:04:26.540Z,98128.56
2023-02-15T21:06:53.598Z,98131.28
2023-02-15T21:09:20.528Z,98122.91
2023-02-15T21:11:47.610Z,98129.56
2023-02-15T21:14:19.855Z,98124.19
2023-02-15T21:16:47.146Z,98126.75
2023-02-15T21:19:16.296Z,98117.31
2023-02-15T21:21:43.638Z,98120.78
2023-02-15T21:24:15.590Z,98120.78
2023-02-15T21:26:44.666Z,98129.03
2023-02-15T21:29:22.643Z,98128.38
2023-02-15T21:31:49.778Z,98129.25
2023-02-15T21:34:18.192Z,98125.97
2023-02-15T21:36:45.778Z,98123.91
2023-02-15T21:39:26.831Z,98115.59
2023-02-15T21:42:12.860Z,98115.78
2023-02-15T21:44:58.325Z,98122.00
2023-02-15T21:47:47.121Z,98119.06
2023-02-15T21:50:37.060Z,98115.41
2023-02-15T21:53:04.793Z,98119.44
2023-02-15T21:55:32.217Z,98108.66
2023-02-15T21:58:01.988Z,98118.38
2023-02-15T22:00:29.302Z,98112.47
2023-02-15T22:02:58.292Z,98119.81
2023-02-15T22:05:28.368Z,98113.97
2023-02-15T22:07:55.446Z,98108.81
2023-02-15T22:10:22.944Z,98112.66
2023-02-15T22:12:49.962Z,98116.34
2023-02-15T22:15:21.773Z,98118.28
2023-02-15T22:17:49.357Z,98109.56
2023-02-15T22:20:20.860Z,98103.38
2023-02-15T22:22:48.363Z,98108.03
2023-02-15T22:25:17.651Z,98106.09
2023-02-15T22:27:44.901Z,98103.81
2023-02-15T22:30:32.421Z,98096.41
2023-02-15T22:32:59.853Z,98095.59
2023-02-15T22:35:31.841Z,98100.47
2023-02-15T22:37:58.850Z,98094.59
2023-02-15T22:40:34.960Z,98095.94
2023-02-15T22:43:03.559Z,98094.00
2023-02-15T22:45:31.382Z,98091.38
2023-02-15T22:47:59.547Z,98092.06
2023-02-15T22:50:26.395Z,98095.84
2023-02-15T22:52:53.430Z,98090.69
2023-02-15T22:55:25.339Z,98095.66
2023-02-15T22:57:53.688Z,98100.22
2023-02-15T23:00:26.298Z,98097.84
2023-02-15T23:02:54.040Z,98105.84
2023-02-15T23:05:31.092Z,98097.47
2023-02-15T23:07:58.222Z,98097.91
2023-02-15T23:10:25.771Z,98103.69
2023-02-15T23:13:15.604Z,98096.06
2023-02-15T23:15:43.920Z,98100.09
2023-02-15T23:18:21.146Z,98093.13
2023-02-15T23:20:59.304Z,98100.84
2023-02-15T23:23:37.469Z,98101.84
2023-02-15T23:26:04.885Z,98096.63
2023-02-15T23:28:35.276Z,98096.09
2023-02-15T23:31:02.719Z,98094.69
2023-02-15T23:33:33.757Z,98084.81
2023-02-15T23:36:00.787Z,98096.44
2023-02-15T23:38:29.537Z,98096.28
2023-02-15T23:41:19.270Z,98096.69
2023-02-15T23:43:52.197Z,98083.66
2023-02-15T23:46:42.770Z,98086.31
2023-02-15T23:49:17.673Z,98084.03
2023-02-15T23:51:46.273Z,98090.00
2023-02-15T23:54:13.709Z,98076.06
2023-02-15T23:56:41.120Z,98089.09
2023-02-15T23:59:08.332Z,98090.09
